Time;durP1;ratioP1;P1;durP2;ratioP2;P2;SDS_P1;SDS_P2;PMS_P1;PMS_P2;Temp;Humidity;BMP_temperature;BMP_pressure;BME280_temperature;BME280_humidity;BME280_pressure;Samples;Min_cycle;Max_cycle;Signal;HPM_P1;HPM_P2
2022/07/06 00:00:10;;;;;;;4.53;2.10;;;;;;;14.40;81.62;101673.81;693411;28;1093;-43
2022/07/06 00:00:31;;;;;;;4.40;2.20;;;;;;;14.40;81.89;101671.19;693351;28;1248;-43
2022/07/06 00:00:51;;;;;;;4.88;2.25;;;;;;;14.46;81.09;101673.78;692725;28;1042;-43
2022/07/06 00:01:11;;;;;;;6.17;2.13;;;;;;;14.44;80.35;101669.41;693972;28;1091;-44
2022/07/06 00:01:32;;;;;;;6.27;2.30;;;;;;;14.42;80.56;101671.19;692706;28;4378;-44
2022/07/06 00:01:52;;;;;;;6.00;2.35;;;;;;;14.38;80.64;101669.44;693126;28;868;-44
2022/07/06 00:02:12;;;;;;;5.17;2.10;;;;;;;14.41;80.39;101672.06;690240;28;1492;-44
2022/07/06 00:02:33;;;;;;;4.95;2.17;;;;;;;14.40;80.66;101673.81;691162;28;1166;-46
2022/07/06 00:02:53;;;;;;;4.60;2.20;;;;;;;14.38;80.82;101670.31;691060;28;1400;-43
2022/07/06 00:03:13;;;;;;;5.03;2.20;;;;;;;14.48;80.87;101668.50;690207;28;1297;-44
2022/07/06 00:03:34;;;;;;;4.77;2.30;;;;;;;14.53;80.12;101672.00;691018;28;1051;-43
2022/07/06 00:03:54;;;;;;;4.60;2.43;;;;;;;14.50;79.66;101669.38;690553;28;1963;-44
2022/07/06 00:04:14;;;;;;;4.53;2.30;;;;;;;14.43;79.88;101673.81;690972;28;1000;-45
2022/07/06 00:04:35;;;;;;;4.47;2.17;;;;;;;14.41;79.77;101670.31;689096;28;4300;-44
2022/07/06 00:04:55;;;;;;;3.80;2.30;;;;;;;14.41;80.42;101669.44;690742;28;1014;-43
2022/07/06 00:05:16;;;;;;;5.30;2.40;;;;;;;14.38;79.70;101674.72;690648;28;1295;-45
2022/07/06 00:05:36;;;;;;;5.73;2.30;;;;;;;14.40;81.08;101670.28;691014;28;1293;-43
2022/07/06 00:05:57;;;;;;;4.93;2.30;;;;;;;14.45;80.50;101676.41;691010;28;1364;-43
2022/07/06 00:06:17;;;;;;;5.07;2.37;;;;;;;14.47;81.19;101674.69;689652;28;1321;-42
2022/07/06 00:06:38;;;;;;;4.07;2.20;;;;;;;14.45;81.59;101672.06;690159;28;1352;-43
2022/07/06 00:07:00;;;;;;;4.97;2.17;;;;;;;14.43;80.08;101670.31;689448;28;1527;-44
2022/07/06 00:07:22;;;;;;;6.30;2.30;;;;;;;14.41;81.40;101674.69;690375;28;1594;-44
2022/07/06 00:07:43;;;;;;;4.32;2.28;;;;;;;14.38;81.38;101674.72;689268;28;5330;-43
2022/07/06 00:08:03;;;;;;;4.55;2.42;;;;;;;14.36;80.75;101676.44;690894;28;1488;-44
2022/07/06 00:08:24;;;;;;;6.13;2.60;;;;;;;14.36;80.90;101674.72;690997;28;900;-43
2022/07/06 00:08:44;;;;;;;6.10;2.38;;;;;;;14.39;81.49;101676.47;690832;28;1266;-43
2022/07/06 00:09:06;;;;;;;6.43;2.53;;;;;;;14.43;80.49;101676.44;690784;28;1122;-43
2022/07/06 00:09:26;;;;;;;4.90;2.25;;;;;;;14.43;80.59;101672.94;690417;28;1230;-44
2022/07/06 00:09:47;;;;;;;4.43;2.05;;;;;;;14.42;81.18;101676.44;689713;28;1223;-44
2022/07/06 00:10:07;;;;;;;4.73;2.20;;;;;;;14.42;81.10;101673.81;690867;28;1064;-43
2022/07/06 00:10:27;;;;;;;4.93;2.20;;;;;;;14.38;80.42;101675.56;689459;28;4282;-43
2022/07/06 00:10:48;;;;;;;5.30;2.37;;;;;;;14.35;79.91;101672.09;690028;28;1153;-45
2022/07/06 00:11:08;;;;;;;5.07;2.27;;;;;;;14.29;80.17;101676.50;690566;28;1262;-43
2022/07/06 00:11:29;;;;;;;4.85;2.20;;;;;;;14.26;79.76;101681.78;693541;28;1247;-43
2022/07/06 00:11:49;;;;;;;4.23;2.07;;;;;;;14.26;79.83;101673.00;693598;28;1345;-43
2022/07/06 00:12:10;;;;;;;4.40;2.10;;;;;;;14.25;80.27;101679.16;690385;28;1022;-43
2022/07/06 00:12:30;;;;;;;5.83;2.40;;;;;;;14.25;79.99;101677.38;690487;28;1367;-43
2022/07/06 00:12:51;;;;;;;5.13;2.40;;;;;;;14.22;79.91;101684.41;693088;28;1138;-43
2022/07/06 00:13:11;;;;;;;5.17;2.40;;;;;;;14.20;80.40;101673.88;692336;28;986;-44
2022/07/06 00:13:31;;;;;;;4.57;2.40;;;;;;;14.21;80.14;101677.41;692964;28;4435;-44
2022/07/06 00:13:52;;;;;;;3.90;2.20;;;;;;;14.18;81.18;101682.66;689601;28;1035;-43
2022/07/06 00:14:12;;;;;;;4.55;2.20;;;;;;;14.18;81.10;101677.41;689118;28;1237;-43
2022/07/06 00:14:33;;;;;;;5.17;2.37;;;;;;;14.19;80.40;101669.53;690654;28;1162;-43
2022/07/06 00:14:53;;;;;;;5.40;2.42;;;;;;;14.17;81.08;101681.78;690095;28;2000;-44
2022/07/06 00:15:14;;;;;;;4.40;2.30;;;;;;;14.14;80.75;101687.06;690228;28;1022;-43
2022/07/06 00:15:34;;;;;;;4.53;2.30;;;;;;;14.16;80.71;101681.81;686320;28;1096;-44
2022/07/06 00:15:54;;;;;;;5.03;2.57;;;;;;;14.12;80.54;101683.56;690147;28;1484;-43
2022/07/06 00:16:15;;;;;;;6.00;2.40;;;;;;;14.08;80.64;101685.34;689760;28;1239;-44
2022/07/06 00:16:35;;;;;;;4.80;2.30;;;;;;;14.09;80.58;101686.22;689663;28;4524;-43
2022/07/06 00:16:56;;;;;;;5.45;2.40;;;;;;;14.08;82.01;101682.72;691086;28;1201;-43
2022/07/06 00:17:16;;;;;;;6.17;2.37;;;;;;;14.10;82.27;101680.94;689798;28;940;-43
2022/07/06 00:17:37;;;;;;;4.73;2.20;;;;;;;14.11;81.98;101682.69;690689;28;2327;-45
2022/07/06 00:17:57;;;;;;;3.88;2.10;;;;;;;14.11;81.01;101681.84;691173;28;1131;-43
2022/07/06 00:18:17;;;;;;;3.83;2.30;;;;;;;14.09;81.31;101689.69;691807;28;1022;-43
2022/07/06 00:18:38;;;;;;;4.72;2.42;;;;;;;14.11;80.96;101687.09;692851;28;1103;-43
2022/07/06 00:18:58;;;;;;;5.93;2.40;;;;;;;14.13;81.79;101685.31;690747;28;1142;-43
2022/07/06 00:19:19;;;;;;;5.32;2.47;;;;;;;14.10;81.28;101678.31;689415;28;1098;-43
2022/07/06 00:19:39;;;;;;;5.53;2.47;;;;;;;14.10;81.02;101680.06;686946;28;4503;-43
2022/07/06 00:20:00;;;;;;;5.40;2.38;;;;;;;14.11;81.54;101684.47;687490;28;3892;-44
2022/07/06 00:20:20;;;;;;;4.27;2.20;;;;;;;14.09;81.72;101681.81;687627;28;1085;-43
2022/07/06 00:20:40;;;;;;;5.47;2.47;;;;;;;14.08;82.91;101682.72;688429;28;1329;-44
2022/07/06 00:21:01;;;;;;;6.73;2.60;;;;;;;14.06;82.60;101688.84;689993;28;1182;-43
2022/07/06 00:21:21;;;;;;;6.17;2.33;;;;;;;14.04;82.49;101685.34;689554;28;1300;-43
2022/07/06 00:21:41;;;;;;;5.82;2.20;;;;;;;14.06;82.34;101688.84;690211;28;1095;-43
2022/07/06 00:22:02;;;;;;;5.73;2.23;;;;;;;14.04;82.59;101680.06;693702;28;1079;-43
2022/07/06 00:22:22;;;;;;;5.40;2.47;;;;;;;14.05;81.96;101687.09;689482;28;1197;-44
2022/07/06 00:22:43;;;;;;;6.00;2.43;;;;;;;14.05;81.44;101681.84;689055;28;4318;-43
2022/07/06 00:23:03;;;;;;;4.45;2.25;;;;;;;14.04;81.00;101680.06;689571;28;1189;-43
2022/07/06 00:23:23;;;;;;;4.30;2.13;;;;;;;13.99;81.80;101684.50;687640;28;1131;-43
2022/07/06 00:23:44;;;;;;;5.03;2.40;;;;;;;13.96;82.59;101683.59;687878;28;1147;-43
2022/07/06 00:24:04;;;;;;;5.82;2.20;;;;;;;13.98;83.13;101680.97;687152;28;1373;-44
2022/07/06 00:24:25;;;;;;;5.77;2.33;;;;;;;14.03;82.68;101683.59;690474;28;937;-43
2022/07/06 00:24:45;;;;;;;4.32;2.05;;;;;;;14.02;81.98;101687.09;690278;28;1293;-43
2022/07/06 00:25:06;;;;;;;4.57;2.17;;;;;;;14.04;81.85;101686.22;689095;28;1176;-44
2022/07/06 00:25:26;;;;;;;5.50;2.50;;;;;;;14.03;81.61;101688.88;690269;28;4473;-44
2022/07/06 00:25:48;;;;;;;6.15;2.70;;;;;;;14.01;81.71;101680.09;690013;28;1837;-43
2022/07/06 00:26:08;;;;;;;5.78;2.50;;;;;;;14.00;81.77;101683.59;690195;28;1186;-45
2022/07/06 00:26:28;;;;;;;4.77;2.30;;;;;;;14.01;81.87;101686.25;691022;28;1106;-43
2022/07/06 00:26:49;;;;;;;3.80;2.30;;;;;;;13.99;83.63;101679.25;691223;28;1407;-44
2022/07/06 00:27:09;;;;;;;5.97;2.60;;;;;;;13.96;83.09;101685.38;690705;28;1110;-43
2022/07/06 00:27:30;;;;;;;5.22;2.50;;;;;;;13.94;83.02;101682.75;690062;28;1351;-43
2022/07/06 00:27:50;;;;;;;5.03;2.30;;;;;;;13.94;83.29;101680.13;690559;28;1179;-44
2022/07/06 00:28:10;;;;;;;4.85;2.22;;;;;;;13.94;84.55;101682.75;689366;28;1509;-44
2022/07/06 00:28:31;;;;;;;5.03;2.53;;;;;;;13.94;83.93;101682.75;689607;28;4477;-43
2022/07/06 00:28:51;;;;;;;4.28;2.55;;;;;;;14.02;83.96;101677.44;690550;28;1063;-43
2022/07/06 00:29:12;;;;;;;5.10;2.53;;;;;;;14.15;83.04;101678.31;689209;28;1106;-44
2022/07/06 00:29:34;;;;;;;4.50;2.25;;;;;;;14.13;83.32;101674.78;686073;28;2037;-44
2022/07/06 00:29:54;;;;;;;3.72;2.10;;;;;;;14.11;82.76;101677.44;686678;28;1819;-45
2022/07/06 00:30:15;;;;;;;5.20;2.27;;;;;;;14.19;83.07;101679.16;688247;28;1212;-44
2022/07/06 00:30:35;;;;;;;5.90;2.78;;;;;;;14.20;82.08;101679.16;687361;28;1160;-43
2022/07/06 00:30:55;;;;;;;4.93;2.40;;;;;;;14.07;82.25;101682.72;685162;28;1278;-44
2022/07/06 00:31:16;;;;;;;4.50;2.50;;;;;;;14.02;82.73;101682.72;684813;28;1404;-43
2022/07/06 00:31:37;;;;;;;5.22;2.50;;;;;;;14.03;83.44;101679.22;687477;28;4258;-45
2022/07/06 00:31:58;;;;;;;6.10;2.50;;;;;;;14.02;83.95;101680.09;688445;28;1127;-46
2022/07/06 00:32:18;;;;;;;5.82;2.50;;;;;;;14.06;83.20;101679.19;687819;28;1039;-43
2022/07/06 00:32:38;;;;;;;5.80;2.53;;;;;;;14.03;83.26;101683.59;687931;28;1212;-43
2022/07/06 00:32:59;;;;;;;5.30;2.50;;;;;;;14.01;83.31;101682.72;691210;28;1170;-44
2022/07/06 00:33:20;;;;;;;4.82;2.40;;;;;;;13.94;83.16;101679.22;690136;28;1213;-43
2022/07/06 00:33:40;;;;;;;5.60;2.50;;;;;;;13.94;83.57;101680.13;689636;28;1091;-43
2022/07/06 00:34:01;;;;;;;5.60;2.47;;;;;;;13.94;83.61;101674.88;689224;28;1961;-44
2022/07/06 00:34:21;;;;;;;4.37;2.20;;;;;;;13.92;84.19;101681.00;689860;28;1295;-43
2022/07/06 00:34:41;;;;;;;5.87;2.50;;;;;;;13.89;83.15;101675.75;686485;28;4350;-45
2022/07/06 00:35:02;;;;;;;5.77;2.50;;;;;;;13.85;83.01;101684.53;685744;28;1979;-44
2022/07/06 00:35:22;;;;;;;5.18;2.65;;;;;;;13.84;84.21;101677.50;690455;28;925;-43
2022/07/06 00:35:43;;;;;;;5.17;2.60;;;;;;;13.86;83.74;101681.88;690523;28;1131;-43
2022/07/06 00:36:04;;;;;;;7.93;2.60;;;;;;;13.86;84.30;101681.00;689785;28;1329;-45
2022/07/06 00:36:24;;;;;;;5.68;2.53;;;;;;;13.81;84.84;101688.91;689691;28;1358;-44
2022/07/06 00:36:45;;;;;;;4.05;2.40;;;;;;;13.85;84.19;101680.13;690200;28;1936;-44
2022/07/06 00:37:06;;;;;;;5.53;2.70;;;;;;;13.84;84.17;101690.66;686887;28;1253;-45
2022/07/06 00:37:27;;;;;;;5.30;2.50;;;;;;;13.85;84.26;101680.13;687054;28;4399;-47
2022/07/06 00:37:47;;;;;;;4.60;2.40;;;;;;;13.87;84.83;101680.13;687065;28;1254;-43
2022/07/06 00:38:07;;;;;;;5.38;2.60;;;;;;;13.89;84.08;101678.38;686660;28;1348;-43
2022/07/06 00:38:28;;;;;;;4.63;2.47;;;;;;;13.90;84.07;101680.13;687478;28;1156;-45
2022/07/06 00:38:48;;;;;;;4.55;2.50;;;;;;;13.87;84.40;101686.25;686924;28;782;-46
2022/07/06 00:39:08;;;;;;;4.87;2.47;;;;;;;13.86;83.92;101681.88;684881;28;1839;-43
2022/07/06 00:39:29;;;;;;;6.30;2.53;;;;;;;13.83;83.56;101687.16;684463;28;2229;-45
2022/07/06 00:39:49;;;;;;;5.60;2.60;;;;;;;13.82;83.41;101674.00;684271;28;893;-43
2022/07/06 00:40:10;;;;;;;5.93;2.67;;;;;;;13.81;83.61;101682.78;684828;28;1385;-43
2022/07/06 00:40:30;;;;;;;7.18;2.88;;;;;;;13.76;83.80;101681.03;685795;28;4680;-45
2022/07/06 00:40:51;;;;;;;6.15;2.80;;;;;;;13.75;83.59;101679.28;687938;28;1155;-43
2022/07/06 00:41:13;;;;;;;5.82;2.70;;;;;;;13.71;84.35;101677.53;690391;28;1201;-43
2022/07/06 00:41:34;;;;;;;6.85;2.83;;;;;;;13.71;84.18;101687.19;690468;28;1095;-43
2022/07/06 00:41:56;;;;;;;5.57;2.47;;;;;;;13.74;84.38;101679.28;687258;28;1806;-42
2022/07/06 00:42:16;;;;;;;5.22;2.63;;;;;;;13.72;84.53;101683.66;690179;28;4686;-44
2022/07/06 00:42:45;;;;;;;4.23;2.43;;;;;;;13.75;85.47;101678.41;690549;28;1135;-44
2022/07/06 00:43:05;;;;;;;4.88;2.55;;;;;;;13.77;84.80;101677.50;684421;28;2336;-44
2022/07/06 00:43:26;;;;;;;5.78;2.67;;;;;;;13.75;85.10;101679.28;683848;28;4576;-43
2022/07/06 00:43:55;;;;;;;6.93;3.00;;;;;;;13.73;84.16;101688.03;686729;28;1176;-44
2022/07/06 00:44:15;;;;;;;5.28;2.80;;;;;;;13.71;84.02;101684.56;687466;28;1250;-46
2022/07/06 00:44:36;;;;;;;7.63;2.90;;;;;;;13.72;84.78;101683.66;684947;28;1695;-45
2022/07/06 00:44:56;;;;;;;5.28;2.70;;;;;;;13.73;85.18;101688.91;681424;28;2044;-45
2022/07/06 00:45:18;;;;;;;4.67;2.93;;;;;;;13.74;84.97;101681.91;681744;28;1156;-44
2022/07/06 00:45:39;;;;;;;5.43;2.63;;;;;;;13.73;85.38;101694.16;682330;28;1124;-43
2022/07/06 00:45:59;;;;;;;5.68;2.65;;;;;;;13.68;85.75;101688.06;682184;28;1560;-43
2022/07/06 00:46:22;;;;;;;4.83;2.80;;;;;;;13.65;84.96;101685.41;684294;28;1327;-43
2022/07/06 00:46:43;;;;;;;5.10;2.70;;;;;;;13.65;84.82;101684.53;684074;28;4246;-43
2022/07/06 00:47:04;;;;;;;4.38;2.63;;;;;;;13.65;85.21;101692.44;685005;28;1041;-44
2022/07/06 00:47:24;;;;;;;5.00;2.85;;;;;;;13.63;85.35;101689.81;685630;28;1900;-42
2022/07/06 00:47:45;;;;;;;5.07;2.70;;;;;;;13.63;85.65;101693.28;685008;28;1135;-43
2022/07/06 00:48:06;;;;;;;6.35;2.80;;;;;;;13.61;86.28;101695.06;685596;28;1148;-44
2022/07/06 00:48:26;;;;;;;5.90;2.80;;;;;;;13.59;86.89;101694.16;687446;28;1469;-43
2022/07/06 00:48:46;;;;;;;6.90;3.00;;;;;;;13.58;87.35;101692.44;688295;28;1404;-43
2022/07/06 00:50:13;;;;;;;6.63;2.90;;;;;;;13.59;86.44;101693.31;690494;28;1239;-43
2022/07/06 00:50:28;;;;;;;6.60;3.00;;;;;;;13.45;85.37;101685.44;687341;28;1575;-45
2022/07/06 00:50:48;;;;;;;6.63;2.83;;;;;;;13.43;85.41;101689.81;686636;28;1256;-43
2022/07/06 00:51:10;;;;;;;6.38;2.85;;;;;;;13.42;85.43;101688.94;689794;28;944;-43
2022/07/06 00:51:35;;;;;;;6.22;3.00;;;;;;;13.40;85.25;101692.44;690246;28;1083;-44
2022/07/06 00:51:56;;;;;;;5.38;2.97;;;;;;;13.40;85.86;101695.06;689580;28;1178;-43
2022/07/06 00:52:17;;;;;;;5.00;2.88;;;;;;;13.39;85.78;101688.09;689715;28;1085;-44
2022/07/06 00:52:37;;;;;;;6.35;3.10;;;;;;;13.39;86.10;101696.81;686037;28;4290;-43
2022/07/06 00:53:03;;;;;;;5.63;2.88;;;;;;;13.42;85.98;101691.56;687117;28;984;-42
2022/07/06 00:53:24;;;;;;;7.43;3.10;;;;;;;13.42;86.62;101696.81;682700;28;1164;-45
2022/07/06 00:53:44;;;;;;;6.93;2.90;;;;;;;13.44;85.97;101687.19;683143;28;1297;-44
2022/07/06 00:54:05;;;;;;;6.30;2.70;;;;;;;13.46;86.29;101692.44;680726;28;1283;-44
2022/07/06 00:54:28;;;;;;;7.35;2.97;;;;;;;13.47;86.32;101695.94;678938;28;1292;-43
2022/07/06 00:54:48;;;;;;;6.15;3.00;;;;;;;13.49;86.67;101686.31;680353;28;1985;-44
2022/07/06 00:55:10;;;;;;;5.87;3.03;;;;;;;13.48;87.32;101695.06;681428;28;1145;-43
2022/07/06 00:55:32;;;;;;;6.72;3.38;;;;;;;13.44;87.29;101691.56;684268;28;4301;-43
2022/07/06 00:55:53;;;;;;;6.90;3.07;;;;;;;13.44;86.48;101696.81;685455;28;1881;-43
2022/07/06 00:56:14;;;;;;;6.53;2.80;;;;;;;13.43;86.72;101692.44;686832;28;980;-43
2022/07/06 00:56:35;;;;;;;5.50;2.88;;;;;;;13.38;87.43;101691.56;685416;28;2006;-43
2022/07/06 00:56:56;;;;;;;5.70;2.88;;;;;;;13.35;86.87;101686.28;685332;28;2252;-45
2022/07/06 00:57:17;;;;;;;5.88;2.90;;;;;;;13.37;86.21;101692.44;685173;28;1224;-45
2022/07/06 00:57:38;;;;;;;6.88;3.10;;;;;;;13.36;85.70;101694.22;682317;28;1260;-43
2022/07/06 00:58:01;;;;;;;5.90;2.88;;;;;;;13.40;85.16;101695.97;681294;28;1152;-43
2022/07/06 00:58:22;;;;;;;5.95;2.80;;;;;;;13.44;85.44;101699.44;683594;28;1094;-45
2022/07/06 00:58:43;;;;;;;5.30;2.90;;;;;;;13.42;85.32;101694.19;684244;28;5109;-43
2022/07/06 00:59:03;;;;;;;5.97;3.05;;;;;;;13.39;85.17;101691.56;686092;28;1230;-44
2022/07/06 00:59:24;;;;;;;7.05;3.10;;;;;;;13.41;85.82;101691.56;688500;28;1179;-46
2022/07/06 00:59:45;;;;;;;6.35;2.80;;;;;;;13.42;85.54;101696.81;689326;28;1798;-43
2022/07/06 01:00:08;;;;;;;6.00;2.77;;;;;;;13.41;85.86;101688.94;690931;28;1241;-43
2022/07/06 01:00:29;;;;;;;8.15;3.25;;;;;;;13.40;86.40;101692.44;689858;28;1002;-43
2022/07/06 01:00:49;;;;;;;6.75;3.00;;;;;;;13.42;86.23;101691.56;691118;28;1145;-45
2022/07/06 01:01:09;;;;;;;6.13;2.90;;;;;;;13.42;87.12;101688.94;690089;28;1138;-43
2022/07/06 01:01:30;;;;;;;5.97;2.90;;;;;;;13.44;86.03;101689.81;689869;28;4395;-44
2022/07/06 01:01:50;;;;;;;6.33;3.13;;;;;;;13.47;86.08;101694.19;690903;28;1219;-43
2022/07/06 01:02:11;;;;;;;5.93;3.13;;;;;;;13.48;86.74;101692.44;692459;28;983;-44
2022/07/06 01:02:32;;;;;;;4.95;2.70;;;;;;;13.49;86.71;101696.84;692987;28;1165;-43
2022/07/06 01:02:53;;;;;;;5.75;2.85;;;;;;;13.55;85.51;101692.44;690598;28;934;-44
2022/07/06 01:03:14;;;;;;;5.25;2.85;;;;;;;13.48;84.87;101693.31;688400;28;1441;-43
2022/07/06 01:03:34;;;;;;;5.80;2.70;;;;;;;13.40;84.86;101695.06;690418;28;1199;-44
2022/07/06 01:03:55;;;;;;;6.67;2.90;;;;;;;13.52;84.53;101691.56;690130;28;1797;-45
2022/07/06 01:04:15;;;;;;;5.38;2.67;;;;;;;13.43;84.88;101693.31;690729;28;1176;-43
2022/07/06 01:04:37;;;;;;;6.40;2.63;;;;;;;13.40;84.75;101687.19;686508;28;4462;-43
2022/07/06 01:04:58;;;;;;;6.77;2.63;;;;;;;13.48;84.55;101687.19;687281;28;1104;-43
2022/07/06 01:05:19;;;;;;;5.95;2.88;;;;;;;13.46;84.83;101689.81;688395;28;1310;-43
2022/07/06 01:05:39;;;;;;;5.72;2.70;;;;;;;13.53;84.26;101688.06;690620;28;1221;-43
2022/07/06 01:06:00;;;;;;;5.47;2.80;;;;;;;13.52;84.25;101687.19;688605;28;1112;-42
2022/07/06 01:06:21;;;;;;;5.90;2.90;;;;;;;13.44;84.42;101695.09;687083;28;1160;-43
2022/07/06 01:06:45;;;;;;;6.90;2.93;;;;;;;13.41;84.43;101692.44;689919;28;1700;-43
2022/07/06 01:07:05;;;;;;;6.03;2.70;;;;;;;13.42;84.17;101685.44;689686;28;1234;-43
2022/07/06 01:07:27;;;;;;;5.55;2.80;;;;;;;13.40;84.56;101695.06;688997;28;4477;-43
2022/07/06 01:07:49;;;;;;;6.07;2.70;;;;;;;13.34;85.01;101697.66;688664;28;1445;-43
2022/07/06 01:08:10;;;;;;;5.50;2.50;;;;;;;13.26;85.05;101693.28;690278;28;1554;-43
2022/07/06 01:08:30;;;;;;;5.67;2.57;;;;;;;13.26;85.18;101703.81;690457;28;1008;-43
2022/07/06 01:08:50;;;;;;;5.13;2.50;;;;;;;13.20;85.61;101695.91;689653;28;1080;-42
2022/07/06 01:09:11;;;;;;;5.83;2.53;;;;;;;13.16;86.20;101699.41;687461;28;1271;-43
2022/07/06 01:09:31;;;;;;;5.88;2.60;;;;;;;13.18;86.17;101695.03;688451;28;1119;-44
2022/07/06 01:09:52;;;;;;;6.13;2.67;;;;;;;13.18;85.83;101695.03;687009;28;2067;-44
2022/07/06 01:10:14;;;;;;;6.03;2.65;;;;;;;13.18;85.75;101695.03;684519;28;928;-45
2022/07/06 01:10:34;;;;;;;5.13;2.80;;;;;;;13.17;85.58;101690.66;683386;28;4294;-44
2022/07/06 01:10:55;;;;;;;6.25;2.80;;;;;;;13.16;86.84;101696.78;685137;28;1101;-43
2022/07/06 01:11:18;;;;;;;6.45;2.63;;;;;;;13.15;87.14;101692.38;686852;28;1402;-44
2022/07/06 01:11:39;;;;;;;7.53;2.70;;;;;;;13.17;86.31;101698.53;687906;28;1497;-43
2022/07/06 01:11:59;;;;;;;6.28;2.60;;;;;;;13.19;86.88;101696.75;687568;28;1099;-45
2022/07/06 01:12:20;;;;;;;6.07;2.63;;;;;;;13.23;86.66;101690.66;687084;28;1862;-43
2022/07/06 01:12:42;;;;;;;5.10;2.60;;;;;;;13.26;85.95;101685.41;686991;28;1449;-43
2022/07/06 01:13:02;;;;;;;4.60;2.50;;;;;;;13.27;86.24;101692.41;684134;28;1387;-45
2022/07/06 01:13:23;;;;;;;5.82;3.10;;;;;;;13.26;86.52;101690.66;683761;28;1583;-46
2022/07/06 01:13:44;;;;;;;5.78;2.70;;;;;;;13.23;86.62;101692.41;684658;28;4494;-43
2022/07/06 01:14:05;;;;;;;6.47;2.70;;;;;;;13.20;85.95;101685.41;685351;28;1573;-44
2022/07/06 01:14:27;;;;;;;5.80;2.50;;;;;;;13.17;85.73;101690.66;684449;28;1076;-45
2022/07/06 01:14:48;;;;;;;5.45;2.40;;;;;;;13.17;85.77;101689.78;685637;28;1030;-44
2022/07/06 01:15:12;;;;;;;6.68;2.40;;;;;;;13.11;85.89;101686.28;686745;28;1831;-44
2022/07/06 01:15:32;;;;;;;4.75;2.22;;;;;;;13.10;86.03;101691.53;685660;28;1234;-43
2022/07/06 01:15:53;;;;;;;4.90;2.33;;;;;;;13.08;86.07;101686.28;683318;28;1636;-43
2022/07/06 01:16:14;;;;;;;4.93;2.50;;;;;;;13.10;86.40;101688.91;684862;28;3619;-43
2022/07/06 01:16:34;;;;;;;5.23;2.47;;;;;;;13.08;86.31;101695.88;684422;28;4481;-44
2022/07/06 01:16:55;;;;;;;6.10;2.63;;;;;;;13.09;86.57;101688.00;682421;28;1429;-43
2022/07/06 01:17:17;;;;;;;5.75;2.80;;;;;;;13.06;87.04;101688.00;681448;28;1229;-43
2022/07/06 01:17:42;;;;;;;4.90;2.42;;;;;;;13.08;86.99;101688.00;684714;28;1135;-43
2022/07/06 01:18:03;;;;;;;6.07;2.40;;;;;;;13.06;87.58;101688.00;687633;28;1351;-44
2022/07/06 01:18:25;;;;;;;5.93;2.50;;;;;;;13.01;86.48;101688.88;685568;28;1508;-44
2022/07/06 01:18:47;;;;;;;6.23;2.50;;;;;;;12.95;86.56;101684.50;685361;28;1415;-45
2022/07/06 01:19:07;;;;;;;6.75;2.40;;;;;;;12.94;87.00;101688.00;686915;28;1220;-44
2022/07/06 01:19:28;;;;;;;6.80;2.37;;;;;;;12.92;86.86;101690.63;688571;28;4390;-44
2022/07/06 01:19:48;;;;;;;5.55;2.33;;;;;;;13.00;87.84;101690.66;689907;28;1935;-43
2022/07/06 01:20:17;;;;;;;5.93;2.50;;;;;;;13.02;87.79;101690.63;689950;28;1064;-42
2022/07/06 01:20:38;;;;;;;4.50;2.30;;;;;;;13.05;87.38;101694.13;687312;28;1570;-43
2022/07/06 01:21:10;;;;;;;4.20;2.20;;;;;;;13.04;87.31;101684.53;685372;28;1178;-43
2022/07/06 01:21:30;;;;;;;5.82;2.40;;;;;;;13.07;87.91;101694.13;684002;28;1071;-45
2022/07/06 01:21:51;;;;;;;6.18;2.40;;;;;;;13.08;86.95;101691.53;686422;28;1107;-43
2022/07/06 01:22:11;;;;;;;5.63;2.23;;;;;;;13.08;86.78;101691.53;686488;28;1328;-43
2022/07/06 01:22:32;;;;;;;4.72;2.20;;;;;;;13.05;88.15;101690.63;681444;28;4539;-43
2022/07/06 01:22:55;;;;;;;6.13;2.47;;;;;;;13.06;87.25;101687.16;685866;28;1208;-42
2022/07/06 01:23:15;;;;;;;5.85;2.55;;;;;;;13.05;88.08;101688.00;687372;28;1294;-43
2022/07/06 01:23:43;;;;;;;5.73;2.23;;;;;;;13.05;88.13;101693.25;686656;28;1140;-44
2022/07/06 01:24:04;;;;;;;5.60;2.33;;;;;;;13.01;88.19;101686.25;687202;28;2191;-43
2022/07/06 01:24:24;;;;;;;5.63;2.30;;;;;;;13.02;87.54;101690.63;687551;28;1192;-43
2022/07/06 01:24:44;;;;;;;6.85;2.50;;;;;;;13.01;87.90;101695.00;687170;28;1629;-43
2022/07/06 01:25:06;;;;;;;6.17;2.40;;;;;;;13.04;86.93;101691.50;685899;28;1128;-44
2022/07/06 01:25:27;;;;;;;5.18;2.30;;;;;;;13.16;86.09;101685.41;686655;28;4943;-43
2022/07/06 01:25:47;;;;;;;5.20;2.20;;;;;;;13.13;86.07;101688.91;686271;28;1798;-43
2022/07/06 01:26:10;;;;;;;5.30;2.10;;;;;;;13.09;86.28;101689.78;687606;28;1060;-43
2022/07/06 01:26:31;;;;;;;6.03;2.30;;;;;;;13.04;86.56;101683.63;690414;28;1235;-43
2022/07/06 01:26:51;;;;;;;5.45;2.28;;;;;;;12.99;86.49;101688.88;691335;28;1088;-44
2022/07/06 01:27:12;;;;;;;4.67;2.23;;;;;;;13.00;87.17;101692.38;692140;28;1245;-44
2022/07/06 01:27:37;;;;;;;5.22;2.17;;;;;;;12.94;86.86;101688.00;692905;28;1083;-44
2022/07/06 01:27:57;;;;;;;6.05;2.28;;;;;;;12.91;86.87;101688.84;693276;28;1226;-44
2022/07/06 01:28:18;;;;;;;5.30;2.17;;;;;;;12.90;87.18;101684.50;693100;28;979;-43
2022/07/06 01:28:38;;;;;;;5.35;2.30;;;;;;;12.89;87.31;101689.72;692389;28;4279;-43
2022/07/06 01:28:59;;;;;;;6.30;2.05;;;;;;;12.91;86.76;101688.00;690265;28;1373;-43
2022/07/06 01:29:19;;;;;;;5.97;2.10;;;;;;;12.92;88.49;101692.38;689615;28;1250;-43
2022/07/06 01:29:41;;;;;;;5.90;2.13;;;;;;;12.88;87.91;101688.00;686775;28;1827;-43
2022/07/06 01:30:01;;;;;;;7.17;2.30;;;;;;;12.84;88.03;101688.84;686971;28;1345;-45
2022/07/06 01:30:21;;;;;;;7.20;2.47;;;;;;;12.80;87.70;101689.72;687337;28;1271;-43
2022/07/06 01:30:42;;;;;;;5.65;2.45;;;;;;;12.79;87.50;101688.81;688045;28;2354;-43
2022/07/06 01:31:02;;;;;;;5.23;2.20;;;;;;;12.81;87.73;101691.44;687191;28;1158;-43
2022/07/06 01:31:25;;;;;;;6.20;2.40;;;;;;;12.85;87.51;101688.84;685130;28;1124;-44
2022/07/06 01:31:48;;;;;;;5.20;2.30;;;;;;;12.86;86.97;101689.72;683967;28;4893;-44
2022/07/06 01:32:08;;;;;;;4.88;2.20;;;;;;;12.89;87.96;101692.34;685302;28;1120;-42
2022/07/06 01:32:29;;;;;;;3.70;2.20;;;;;;;12.89;87.23;101692.34;686453;28;1128;-43
2022/07/06 01:32:50;;;;;;;5.40;2.20;;;;;;;12.85;87.08;101694.09;688264;28;1040;-45
2022/07/06 01:33:10;;;;;;;5.40;2.10;;;;;;;12.85;87.21;101688.84;690521;28;1312;-43
2022/07/06 01:33:32;;;;;;;5.37;2.23;;;;;;;12.86;87.39;101692.34;691121;28;1657;-43
2022/07/06 01:33:55;;;;;;;5.63;2.38;;;;;;;12.90;89.11;101687.13;689400;28;1897;-42
2022/07/06 01:34:19;;;;;;;5.05;2.25;;;;;;;12.91;88.91;101688.00;690317;28;1992;-44
2022/07/06 01:34:41;;;;;;;4.80;2.20;;;;;;;12.91;88.13;101694.09;689629;28;4376;-43
2022/07/06 01:35:01;;;;;;;4.93;2.20;;;;;;;12.89;88.47;101684.47;689569;28;1910;-43
2022/07/06 01:35:24;;;;;;;4.78;2.10;;;;;;;12.87;89.31;101686.22;692123;28;1095;-43
2022/07/06 01:35:44;;;;;;;4.40;2.10;;;;;;;12.83;88.29;101685.34;693230;28;1742;-43
2022/07/06 01:36:05;;;;;;;6.40;2.38;;;;;;;12.80;88.82;101687.09;692350;28;1145;-44
2022/07/06 01:36:25;;;;;;;4.67;2.10;;;;;;;12.81;88.90;101683.56;692511;28;1099;-43
2022/07/06 01:36:46;;;;;;;5.25;2.10;;;;;;;12.82;88.28;101686.22;689934;28;2020;-43
2022/07/06 01:37:06;;;;;;;5.80;2.27;;;;;;;12.82;89.57;101683.59;690236;28;1080;-44
2022/07/06 01:37:27;;;;;;;5.50;2.20;;;;;;;12.84;88.61;101692.34;689694;28;4472;-43
2022/07/06 01:37:47;;;;;;;5.57;2.00;;;;;;;12.79;88.80;101686.19;689816;28;1127;-43
2022/07/06 01:38:08;;;;;;;5.93;2.03;;;;;;;12.75;88.26;101692.31;687538;28;1103;-43
2022/07/06 01:38:28;;;;;;;5.50;2.23;;;;;;;12.74;88.50;101693.22;687169;28;1171;-44
2022/07/06 01:38:50;;;;;;;4.65;2.20;;;;;;;12.73;88.27;101694.06;687764;28;1162;-43
2022/07/06 01:39:11;;;;;;;4.72;2.30;;;;;;;12.69;88.40;101687.94;687192;28;2510;-42
2022/07/06 01:39:31;;;;;;;5.95;2.72;;;;;;;12.72;88.89;101692.31;687586;28;1061;-43
2022/07/06 01:39:52;;;;;;;6.13;2.30;;;;;;;12.71;89.11;101690.56;687716;28;1235;-45
2022/07/06 01:40:12;;;;;;;6.07;2.13;;;;;;;12.69;89.20;101694.94;684253;28;2191;-43
2022/07/06 01:40:33;;;;;;;6.35;2.28;;;;;;;12.64;89.35;101692.31;683607;28;4485;-44
2022/07/06 01:40:53;;;;;;;6.07;2.30;;;;;;;12.64;88.36;101696.66;685766;28;1381;-43